sensor_id;sensor_type;location;lat;lon;timestamp;temperature;humidity
76172;DHT22;64929;51.178;4.138;2024-03-06T00:02:22;9.60;99.90
76172;DHT22;64929;51.178;4.138;2024-03-06T00:04:48;9.50;99.90
76172;DHT22;64929;51.178;4.138;2024-03-06T00:07:14;9.40;99.90
76172;DHT22;64929;51.178;4.138;2024-03-06T00:09:39;9.40;99.90
76172;DHT22;64929;51.178;4.138;2024-03-06T00:12:05;9.40;99.90
76172;DHT22;64929;51.178;4.138;2024-03-06T00:14:31;9.40;99.90
76172;DHT22;64929;51.178;4.138;2024-03-06T00:16:57;9.30;99.90
76172;DHT22;64929;51.178;4.138;2024-03-06T00:19:22;9.20;99.90
76172;DHT22;64929;51.178;4.138;2024-03-06T00:21:48;8.90;99.90
76172;DHT22;64929;51.178;4.138;2024-03-06T00:24:14;9.00;99.90
76172;DHT22;64929;51.178;4.138;2024-03-06T00:26:43;8.90;99.90
76172;DHT22;64929;51.178;4.138;2024-03-06T00:29:09;9.10;99.90
76172;DHT22;64929;51.178;4.138;2024-03-06T00:31:35;9.20;99.90
76172;DHT22;64929;51.178;4.138;2024-03-06T00:34:01;9.20;99.90
76172;DHT22;64929;51.178;4.138;2024-03-06T00:36:26;9.00;99.90
76172;DHT22;64929;51.178;4.138;2024-03-06T00:38:52;8.90;99.90
76172;DHT22;64929;51.178;4.138;2024-03-06T00:41:17;8.60;99.90
76172;DHT22;64929;51.178;4.138;2024-03-06T00:43:44;8.60;99.90
76172;DHT22;64929;51.178;4.138;2024-03-06T00:46:10;8.70;99.90
76172;DHT22;64929;51.178;4.138;2024-03-06T00:48:36;8.70;99.90
76172;DHT22;64929;51.178;4.138;2024-03-06T00:51:12;8.80;99.90
76172;DHT22;64929;51.178;4.138;2024-03-06T00:57:03;8.80;99.90
76172;DHT22;64929;51.178;4.138;2024-03-06T00:59:29;8.60;99.90
76172;DHT22;64929;51.178;4.138;2024-03-06T01:01:55;8.60;99.90
76172;DHT22;64929;51.178;4.138;2024-03-06T01:04:23;8.60;99.90
76172;DHT22;64929;51.178;4.138;2024-03-06T01:06:49;8.60;99.90
76172;DHT22;64929;51.178;4.138;2024-03-06T01:09:15;8.60;99.90
76172;DHT22;64929;51.178;4.138;2024-03-06T01:11:40;8.70;99.90
76172;DHT22;64929;51.178;4.138;2024-03-06T01:14:06;8.60;99.90
76172;DHT22;64929;51.178;4.138;2024-03-06T01:16:31;8.60;99.90
76172;DHT22;64929;51.178;4.138;2024-03-06T01:18:57;8.70;99.90
76172;DHT22;64929;51.178;4.138;2024-03-06T01:21:23;8.80;99.90
76172;DHT22;64929;51.178;4.138;2024-03-06T01:23:48;8.80;99.90
76172;DHT22;64929;51.178;4.138;2024-03-06T01:26:14;9.00;99.90
76172;DHT22;64929;51.178;4.138;2024-03-06T01:28:40;9.00;99.90
76172;DHT22;64929;51.178;4.138;2024-03-06T01:31:05;8.90;99.90
76172;DHT22;64929;51.178;4.138;2024-03-06T01:33:31;9.00;99.90
76172;DHT22;64929;51.178;4.138;2024-03-06T01:35:57;9.10;99.90
76172;DHT22;64929;51.178;4.138;2024-03-06T01:38:23;9.20;99.90
76172;DHT22;64929;51.178;4.138;2024-03-06T01:40:48;9.10;99.90
76172;DHT22;64929;51.178;4.138;2024-03-06T01:43:20;9.10;99.90
76172;DHT22;64929;51.178;4.138;2024-03-06T01:45:47;9.10;99.90
76172;DHT22;64929;51.178;4.138;2024-03-06T01:48:13;8.90;99.90
76172;DHT22;64929;51.178;4.138;2024-03-06T01:50:40;8.80;99.90
76172;DHT22;64929;51.178;4.138;2024-03-06T01:53:06;8.80;99.90
76172;DHT22;64929;51.178;4.138;2024-03-06T01:55:31;9.00;99.90
76172;DHT22;64929;51.178;4.138;2024-03-06T01:57:57;9.00;99.90
76172;DHT22;64929;51.178;4.138;2024-03-06T02:00:23;8.90;99.90
76172;DHT22;64929;51.178;4.138;2024-03-06T02:02:48;8.90;99.90
76172;DHT22;64929;51.178;4.138;2024-03-06T02:05:14;8.90;99.90
76172;DHT22;64929;51.178;4.138;2024-03-06T02:07:40;8.80;99.90
76172;DHT22;64929;51.178;4.138;2024-03-06T02:10:07;8.70;99.90
76172;DHT22;64929;51.178;4.138;2024-03-06T02:12:32;8.80;99.90
76172;DHT22;64929;51.178;4.138;2024-03-06T02:14:58;8.70;99.90
76172;DHT22;64929;51.178;4.138;2024-03-06T02:17:23;8.60;99.90
76172;DHT22;64929;51.178;4.138;2024-03-06T02:19:51;8.60;99.90
76172;DHT22;64929;51.178;4.138;2024-03-06T02:22:16;8.60;99.90
76172;DHT22;64929;51.178;4.138;2024-03-06T02:24:46;8.70;99.90
76172;DHT22;64929;51.178;4.138;2024-03-06T02:27:12;8.70;99.90
76172;DHT22;64929;51.178;4.138;2024-03-06T02:29:38;8.70;99.90
76172;DHT22;64929;51.178;4.138;2024-03-06T02:32:03;8.60;99.90
76172;DHT22;64929;51.178;4.138;2024-03-06T02:34:29;8.60;99.90
76172;DHT22;64929;51.178;4.138;2024-03-06T02:36:57;8.50;99.90
76172;DHT22;64929;51.178;4.138;2024-03-06T02:39:23;8.40;99.90
76172;DHT22;64929;51.178;4.138;2024-03-06T02:41:48;8.30;99.90
76172;DHT22;64929;51.178;4.138;2024-03-06T02:44:14;8.50;99.90
76172;DHT22;64929;51.178;4.138;2024-03-06T02:46:40;8.40;99.90
76172;DHT22;64929;51.178;4.138;2024-03-06T02:49:06;8.40;99.90
76172;DHT22;64929;51.178;4.138;2024-03-06T02:51:32;8.50;99.90
76172;DHT22;64929;51.178;4.138;2024-03-06T02:53:57;8.40;99.90
76172;DHT22;64929;51.178;4.138;2024-03-06T02:56:23;8.40;99.90
76172;DHT22;64929;51.178;4.138;2024-03-06T02:58:49;8.40;99.90
76172;DHT22;64929;51.178;4.138;2024-03-06T03:01:15;8.40;99.90
76172;DHT22;64929;51.178;4.138;2024-03-06T03:03:41;8.30;99.90
76172;DHT22;64929;51.178;4.138;2024-03-06T03:06:07;8.10;99.90
76172;DHT22;64929;51.178;4.138;2024-03-06T03:08:32;8.10;99.90
76172;DHT22;64929;51.178;4.138;2024-03-06T03:10:58;7.90;99.90
76172;DHT22;64929;51.178;4.138;2024-03-06T03:13:23;7.90;99.90
76172;DHT22;64929;51.178;4.138;2024-03-06T03:15:49;8.00;99.90
76172;DHT22;64929;51.178;4.138;2024-03-06T03:18:14;8.00;99.90
76172;DHT22;64929;51.178;4.138;2024-03-06T03:20:40;8.00;99.90
76172;DHT22;64929;51.178;4.138;2024-03-06T03:23:06;8.00;99.90
76172;DHT22;64929;51.178;4.138;2024-03-06T03:25:39;8.00;99.90
76172;DHT22;64929;51.178;4.138;2024-03-06T03:28:05;8.20;99.90
76172;DHT22;64929;51.178;4.138;2024-03-06T03:30:30;8.20;99.90
76172;DHT22;64929;51.178;4.138;2024-03-06T03:32:57;8.30;99.90
76172;DHT22;64929;51.178;4.138;2024-03-06T03:35:23;8.10;99.90
76172;DHT22;64929;51.178;4.138;2024-03-06T03:37:51;8.10;99.90
76172;DHT22;64929;51.178;4.138;2024-03-06T03:40:17;8.00;99.90
76172;DHT22;64929;51.178;4.138;2024-03-06T03:42:45;8.00;99.90
76172;DHT22;64929;51.178;4.138;2024-03-06T03:45:11;8.10;99.90
76172;DHT22;64929;51.178;4.138;2024-03-06T03:47:37;8.10;99.90
76172;DHT22;64929;51.178;4.138;2024-03-06T03:50:02;8.00;99.90
76172;DHT22;64929;51.178;4.138;2024-03-06T03:52:29;8.00;99.90
76172;DHT22;64929;51.178;4.138;2024-03-06T03:54:55;7.90;99.90
76172;DHT22;64929;51.178;4.138;2024-03-06T03:57:20;7.90;99.90
76172;DHT22;64929;51.178;4.138;2024-03-06T03:59:46;7.90;99.90
76172;DHT22;64929;51.178;4.138;2024-03-06T04:02:11;8.00;99.90
76172;DHT22;64929;51.178;4.138;2024-03-06T04:04:37;8.00;99.90
76172;DHT22;64929;51.178;4.138;2024-03-06T04:07:02;7.80;99.90
76172;DHT22;64929;51.178;4.138;2024-03-06T04:09:28;7.80;99.90
76172;DHT22;64929;51.178;4.138;2024-03-06T04:11:54;7.80;99.90
76172;DHT22;64929;51.178;4.138;2024-03-06T04:14:19;7.70;99.90
76172;DHT22;64929;51.178;4.138;2024-03-06T04:16:45;7.80;99.90
76172;DHT22;64929;51.178;4.138;2024-03-06T04:19:11;7.90;99.90
76172;DHT22;64929;51.178;4.138;2024-03-06T04:21:41;7.80;99.90
76172;DHT22;64929;51.178;4.138;2024-03-06T04:24:07;7.80;99.90
76172;DHT22;64929;51.178;4.138;2024-03-06T04:26:33;7.80;99.90
76172;DHT22;64929;51.178;4.138;2024-03-06T04:28:58;7.80;99.90
76172;DHT22;64929;51.178;4.138;2024-03-06T04:31:24;7.60;99.90
76172;DHT22;64929;51.178;4.138;2024-03-06T04:33:50;7.70;99.90
76172;DHT22;64929;51.178;4.138;2024-03-06T04:36:16;7.60;99.90
76172;DHT22;64929;51.178;4.138;2024-03-06T04:38:42;7.70;99.90
76172;DHT22;64929;51.178;4.138;2024-03-06T04:41:08;7.70;99.90
76172;DHT22;64929;51.178;4.138;2024-03-06T04:43:33;7.70;99.90
76172;DHT22;64929;51.178;4.138;2024-03-06T04:45:59;7.70;99.90
76172;DHT22;64929;51.178;4.138;2024-03-06T04:48:25;7.90;99.90
76172;DHT22;64929;51.178;4.138;2024-03-06T04:50:51;7.80;99.90
76172;DHT22;64929;51.178;4.138;2024-03-06T04:53:16;7.70;99.90
76172;DHT22;64929;51.178;4.138;2024-03-06T04:55:42;7.60;99.90
76172;DHT22;64929;51.178;4.138;2024-03-06T04:58:07;7.60;99.90
76172;DHT22;64929;51.178;4.138;2024-03-06T05:00:33;7.50;99.90
76172;DHT22;64929;51.178;4.138;2024-03-06T05:02:59;7.60;99.90
76172;DHT22;64929;51.178;4.138;2024-03-06T05:05:25;7.50;99.90
76172;DHT22;64929;51.178;4.138;2024-03-06T05:07:50;7.50;99.90
76172;DHT22;64929;51.178;4.138;2024-03-06T05:10:17;7.60;99.90
76172;DHT22;64929;51.178;4.138;2024-03-06T05:12:42;7.50;99.90
76172;DHT22;64929;51.178;4.138;2024-03-06T05:15:08;7.40;99.90
76172;DHT22;64929;51.178;4.138;2024-03-06T05:17:34;7.40;99.90
76172;DHT22;64929;51.178;4.138;2024-03-06T05:19:59;7.40;99.90
76172;DHT22;64929;51.178;4.138;2024-03-06T05:22:25;7.40;99.90
76172;DHT22;64929;51.178;4.138;2024-03-06T05:24:51;7.30;99.90
76172;DHT22;64929;51.178;4.138;2024-03-06T05:27:18;7.20;99.90
76172;DHT22;64929;51.178;4.138;2024-03-06T05:29:43;7.30;99.90
76172;DHT22;64929;51.178;4.138;2024-03-06T05:32:09;7.30;99.90
76172;DHT22;64929;51.178;4.138;2024-03-06T05:34:35;7.40;99.90
76172;DHT22;64929;51.178;4.138;2024-03-06T05:37:01;7.40;99.90
76172;DHT22;64929;51.178;4.138;2024-03-06T05:39:27;7.50;99.90
76172;DHT22;64929;51.178;4.138;2024-03-06T05:41:55;7.60;99.90
76172;DHT22;64929;51.178;4.138;2024-03-06T05:44:21;7.50;99.90
76172;DHT22;64929;51.178;4.138;2024-03-06T05:46:47;7.50;99.90
76172;DHT22;64929;51.178;4.138;2024-03-06T05:49:13;7.60;99.90
76172;DHT22;64929;51.178;4.138;2024-03-06T05:51:39;7.50;99.90
76172;DHT22;64929;51.178;4.138;2024-03-06T05:54:04;7.30;99.90
76172;DHT22;64929;51.178;4.138;2024-03-06T05:56:34;7.20;99.90
76172;DHT22;64929;51.178;4.138;2024-03-06T05:58:59;7.20;99.90
76172;DHT22;64929;51.178;4.138;2024-03-06T06:01:30;7.10;99.90
76172;DHT22;64929;51.178;4.138;2024-03-06T06:03:55;7.10;99.90
76172;DHT22;64929;51.178;4.138;2024-03-06T06:06:21;7.20;99.90
76172;DHT22;64929;51.178;4.138;2024-03-06T06:08:46;7.20;99.90
76172;DHT22;64929;51.178;4.138;2024-03-06T06:11:12;7.20;99.90
76172;DHT22;64929;51.178;4.138;2024-03-06T06:13:38;7.20;99.90
76172;DHT22;64929;51.178;4.138;2024-03-06T06:16:04;7.20;99.90
76172;DHT22;64929;51.178;4.138;2024-03-06T06:18:30;7.20;99.90
76172;DHT22;64929;51.178;4.138;2024-03-06T06:20:57;7.20;99.90
76172;DHT22;64929;51.178;4.138;2024-03-06T06:23:23;7.20;99.90
76172;DHT22;64929;51.178;4.138;2024-03-06T06:25:49;7.30;99.90
76172;DHT22;64929;51.178;4.138;2024-03-06T06:28:14;7.20;99.90
76172;DHT22;64929;51.178;4.138;2024-03-06T06:30:40;7.20;99.90
76172;DHT22;64929;51.178;4.138;2024-03-06T06:33:05;7.30;99.90
76172;DHT22;64929;51.178;4.138;2024-03-06T06:35:31;7.30;99.90
76172;DHT22;64929;51.178;4.138;2024-03-06T06:37:57;7.30;99.90
76172;DHT22;64929;51.178;4.138;2024-03-06T06:40:23;7.30;99.90
76172;DHT22;64929;51.178;4.138;2024-03-06T06:42:49;7.30;99.90
76172;DHT22;64929;51.178;4.138;2024-03-06T06:45:15;7.30;99.90
76172;DHT22;64929;51.178;4.138;2024-03-06T06:47:41;7.20;99.90
76172;DHT22;64929;51.178;4.138;2024-03-06T06:50:06;7.20;99.90
76172;DHT22;64929;51.178;4.138;2024-03-06T06:52:37;7.20;99.90
76172;DHT22;64929;51.178;4.138;2024-03-06T06:55:03;7.20;99.90
76172;DHT22;64929;51.178;4.138;2024-03-06T06:57:29;7.20;99.90
76172;DHT22;64929;51.178;4.138;2024-03-06T06:59:55;7.20;99.90
76172;DHT22;64929;51.178;4.138;2024-03-06T07:02:20;7.20;99.90
76172;DHT22;64929;51.178;4.138;2024-03-06T07:04:47;7.20;99.90
76172;DHT22;64929;51.178;4.138;2024-03-06T07:07:14;7.10;99.90
76172;DHT22;64929;51.178;4.138;2024-03-06T07:09:39;7.30;99.90
76172;DHT22;64929;51.178;4.138;2024-03-06T07:12:05;7.30;99.90
76172;DHT22;64929;51.178;4.138;2024-03-06T07:14:31;7.30;99.90
76172;DHT22;64929;51.178;4.138;2024-03-06T07:16:56;7.30;99.90
76172;DHT22;64929;51.178;4.138;2024-03-06T07:19:22;7.40;99.90
76172;DHT22;64929;51.178;4.138;2024-03-06T07:21:47;7.50;99.90
76172;DHT22;64929;51.178;4.138;2024-03-06T07:24:13;7.60;99.90
76172;DHT22;64929;51.178;4.138;2024-03-06T07:26:39;7.70;99.90
76172;DHT22;64929;51.178;4.138;2024-03-06T07:29:04;7.70;99.90
76172;DHT22;64929;51.178;4.138;2024-03-06T07:31:38;7.80;99.90
76172;DHT22;64929;51.178;4.138;2024-03-06T07:34:04;7.50;99.90
76172;DHT22;64929;51.178;4.138;2024-03-06T07:36:33;7.70;99.90
76172;DHT22;64929;51.178;4.138;2024-03-06T07:39:00;7.70;99.90
76172;DHT22;64929;51.178;4.138;2024-03-06T07:41:26;7.40;99.90
76172;DHT22;64929;51.178;4.138;2024-03-06T07:43:51;7.30;99.90
76172;DHT22;64929;51.178;4.138;2024-03-06T07:46:17;7.30;99.90
76172;DHT22;64929;51.178;4.138;2024-03-06T07:48:43;7.40;99.90
76172;DHT22;64929;51.178;4.138;2024-03-06T07:51:11;7.30;99.90
76172;DHT22;64929;51.178;4.138;2024-03-06T07:53:37;7.30;99.90
76172;DHT22;64929;51.178;4.138;2024-03-06T07:56:03;7.30;99.90
76172;DHT22;64929;51.178;4.138;2024-03-06T07:58:28;7.10;99.90
76172;DHT22;64929;51.178;4.138;2024-03-06T08:00:54;7.30;99.90
76172;DHT22;64929;51.178;4.138;2024-03-06T08:03:21;7.20;99.90
76172;DHT22;64929;51.178;4.138;2024-03-06T08:05:51;7.40;99.90
76172;DHT22;64929;51.178;4.138;2024-03-06T08:08:17;7.40;99.90
76172;DHT22;64929;51.178;4.138;2024-03-06T08:10:43;7.40;99.90
76172;DHT22;64929;51.178;4.138;2024-03-06T08:13:10;7.50;99.90
76172;DHT22;64929;51.178;4.138;2024-03-06T08:15:36;7.50;99.90
76172;DHT22;64929;51.178;4.138;2024-03-06T08:18:01;7.50;99.90
76172;DHT22;64929;51.178;4.138;2024-03-06T08:20:28;7.50;99.90
76172;DHT22;64929;51.178;4.138;2024-03-06T08:22:54;7.70;99.90
76172;DHT22;64929;51.178;4.138;2024-03-06T08:25:21;7.60;99.90
76172;DHT22;64929;51.178;4.138;2024-03-06T08:27:46;7.70;99.90
76172;DHT22;64929;51.178;4.138;2024-03-06T08:30:12;7.80;99.90
76172;DHT22;64929;51.178;4.138;2024-03-06T08:32:38;7.90;99.90
76172;DHT22;64929;51.178;4.138;2024-03-06T08:35:04;8.00;99.90
76172;DHT22;64929;51.178;4.138;2024-03-06T08:37:39;8.10;99.90
76172;DHT22;64929;51.178;4.138;2024-03-06T08:40:05;8.20;99.90
76172;DHT22;64929;51.178;4.138;2024-03-06T08:42:32;8.10;99.90
76172;DHT22;64929;51.178;4.138;2024-03-06T08:44:58;8.00;99.90
76172;DHT22;64929;51.178;4.138;2024-03-06T08:47:24;8.10;99.90
76172;DHT22;64929;51.178;4.138;2024-03-06T08:49:50;8.30;99.90
76172;DHT22;64929;51.178;4.138;2024-03-06T08:52:15;8.40;99.90
76172;DHT22;64929;51.178;4.138;2024-03-06T08:54:41;8.40;99.90
76172;DHT22;64929;51.178;4.138;2024-03-06T08:57:07;8.50;99.90
76172;DHT22;64929;51.178;4.138;2024-03-06T08:59:34;8.50;99.90
76172;DHT22;64929;51.178;4.138;2024-03-06T09:02:10;8.60;99.90
76172;DHT22;64929;51.178;4.138;2024-03-06T09:04:36;8.70;99.90
76172;DHT22;64929;51.178;4.138;2024-03-06T09:07:02;8.50;99.90
76172;DHT22;64929;51.178;4.138;2024-03-06T09:09:27;8.40;99.90
76172;DHT22;64929;51.178;4.138;2024-03-06T09:11:54;8.50;99.90
76172;DHT22;64929;51.178;4.138;2024-03-06T09:14:19;8.60;99.90
76172;DHT22;64929;51.178;4.138;2024-03-06T09:16:45;9.00;99.90
76172;DHT22;64929;51.178;4.138;2024-03-06T09:19:11;9.40;99.90
76172;DHT22;64929;51.178;4.138;2024-03-06T09:21:36;9.30;99.90
76172;DHT22;64929;51.178;4.138;2024-03-06T09:24:02;9.30;99.90
76172;DHT22;64929;51.178;4.138;2024-03-06T09:26:28;9.30;99.90
76172;DHT22;64929;51.178;4.138;2024-03-06T09:28:53;9.40;99.90
76172;DHT22;64929;51.178;4.138;2024-03-06T09:31:19;9.50;99.90
76172;DHT22;64929;51.178;4.138;2024-03-06T09:33:44;9.50;99.90
76172;DHT22;64929;51.178;4.138;2024-03-06T09:36:11;9.70;99.90
76172;DHT22;64929;51.178;4.138;2024-03-06T09:38:39;9.70;99.90
76172;DHT22;64929;51.178;4.138;2024-03-06T09:41:06;9.60;99.90
76172;DHT22;64929;51.178;4.138;2024-03-06T09:43:32;9.70;99.90
76172;DHT22;64929;51.178;4.138;2024-03-06T09:45:58;9.80;99.90
76172;DHT22;64929;51.178;4.138;2024-03-06T09:48:23;10.10;99.90
76172;DHT22;64929;51.178;4.138;2024-03-06T09:50:49;10.10;99.90
76172;DHT22;64929;51.178;4.138;2024-03-06T09:53:17;10.20;99.90
76172;DHT22;64929;51.178;4.138;2024-03-06T09:55:43;10.30;99.90
76172;DHT22;64929;51.178;4.138;2024-03-06T09:58:11;10.40;99.90
76172;DHT22;64929;51.178;4.138;2024-03-06T10:00:37;10.20;99.90
76172;DHT22;64929;51.178;4.138;2024-03-06T10:03:03;10.10;99.90
76172;DHT22;64929;51.178;4.138;2024-03-06T10:05:30;10.10;99.90
76172;DHT22;64929;51.178;4.138;2024-03-06T10:08:00;10.40;99.90
76172;DHT22;64929;51.178;4.138;2024-03-06T10:10:26;10.50;99.90
76172;DHT22;64929;51.178;4.138;2024-03-06T10:12:52;10.70;99.90
76172;DHT22;64929;51.178;4.138;2024-03-06T10:15:18;11.00;99.90
76172;DHT22;64929;51.178;4.138;2024-03-06T10:17:44;11.10;99.90
76172;DHT22;64929;51.178;4.138;2024-03-06T10:20:18;10.80;99.90
76172;DHT22;64929;51.178;4.138;2024-03-06T10:22:47;10.70;99.90
76172;DHT22;64929;51.178;4.138;2024-03-06T10:25:12;11.10;99.90
76172;DHT22;64929;51.178;4.138;2024-03-06T10:27:38;11.00;99.90
76172;DHT22;64929;51.178;4.138;2024-03-06T10:30:04;11.00;99.90
76172;DHT22;64929;51.178;4.138;2024-03-06T10:32:30;11.10;99.90
76172;DHT22;64929;51.178;4.138;2024-03-06T10:34:55;11.10;99.90
76172;DHT22;64929;51.178;4.138;2024-03-06T10:37:21;11.00;99.90
76172;DHT22;64929;51.178;4.138;2024-03-06T10:39:47;10.90;99.90
76172;DHT22;64929;51.178;4.138;2024-03-06T10:42:15;10.70;99.90
76172;DHT22;64929;51.178;4.138;2024-03-06T10:44:44;10.90;99.90
76172;DHT22;64929;51.178;4.138;2024-03-06T10:47:12;11.10;99.90
76172;DHT22;64929;51.178;4.138;2024-03-06T10:49:39;11.10;99.90
76172;DHT22;64929;51.178;4.138;2024-03-06T10:52:06;11.10;99.90
76172;DHT22;64929;51.178;4.138;2024-03-06T10:54:32;11.30;99.90
76172;DHT22;64929;51.178;4.138;2024-03-06T10:57:00;11.30;99.90
76172;DHT22;64929;51.178;4.138;2024-03-06T10:59:27;11.50;99.90
76172;DHT22;64929;51.178;4.138;2024-03-06T11:01:54;11.60;99.90
76172;DHT22;64929;51.178;4.138;2024-03-06T11:04:22;11.50;99.90
76172;DHT22;64929;51.178;4.138;2024-03-06T11:06:49;11.60;99.90
76172;DHT22;64929;51.178;4.138;2024-03-06T11:09:14;11.60;99.90
76172;DHT22;64929;51.178;4.138;2024-03-06T11:11:51;11.80;99.90
76172;DHT22;64929;51.178;4.138;2024-03-06T11:14:17;11.90;99.90
76172;DHT22;64929;51.178;4.138;2024-03-06T11:17:01;11.80;99.90
76172;DHT22;64929;51.178;4.138;2024-03-06T11:19:28;11.80;99.90
76172;DHT22;64929;51.178;4.138;2024-03-06T11:21:54;12.00;99.90
76172;DHT22;64929;51.178;4.138;2024-03-06T11:24:23;12.20;99.90
76172;DHT22;64929;51.178;4.138;2024-03-06T11:26:55;12.30;99.90
76172;DHT22;64929;51.178;4.138;2024-03-06T11:29:27;12.30;99.90
76172;DHT22;64929;51.178;4.138;2024-03-06T11:31:57;12.30;99.90
76172;DHT22;64929;51.178;4.138;2024-03-06T11:34:23;12.10;99.90
76172;DHT22;64929;51.178;4.138;2024-03-06T11:36:53;11.90;99.90
76172;DHT22;64929;51.178;4.138;2024-03-06T11:39:19;12.20;99.90
76172;DHT22;64929;51.178;4.138;2024-03-06T11:41:48;12.30;99.90
76172;DHT22;64929;51.178;4.138;2024-03-06T11:44:15;12.40;99.90
76172;DHT22;64929;51.178;4.138;2024-03-06T11:46:56;12.00;99.90
76172;DHT22;64929;51.178;4.138;2024-03-06T11:49:23;11.80;99.90
76172;DHT22;64929;51.178;4.138;2024-03-06T11:51:52;11.90;99.90
76172;DHT22;64929;51.178;4.138;2024-03-06T11:54:18;12.10;99.90
76172;DHT22;64929;51.178;4.138;2024-03-06T11:56:48;12.40;99.90
76172;DHT22;64929;51.178;4.138;2024-03-06T11:59:16;12.80;99.90
76172;DHT22;64929;51.178;4.138;2024-03-06T12:01:42;12.70;99.90
76172;DHT22;64929;51.178;4.138;2024-03-06T12:04:07;12.40;99.90
76172;DHT22;64929;51.178;4.138;2024-03-06T12:06:33;12.30;99.90
76172;DHT22;64929;51.178;4.138;2024-03-06T12:08:59;12.40;99.90
76172;DHT22;64929;51.178;4.138;2024-03-06T12:11:25;12.60;99.90
76172;DHT22;64929;51.178;4.138;2024-03-06T12:13:51;12.80;99.70
76172;DHT22;64929;51.178;4.138;2024-03-06T12:16:17;12.80;99.70
76172;DHT22;64929;51.178;4.138;2024-03-06T12:18:42;12.90;99.50
76172;DHT22;64929;51.178;4.138;2024-03-06T12:21:10;13.00;99.50
76172;DHT22;64929;51.178;4.138;2024-03-06T12:23:36;12.90;99.10
76172;DHT22;64929;51.178;4.138;2024-03-06T12:26:05;13.50;99.40
76172;DHT22;64929;51.178;4.138;2024-03-06T12:28:31;14.00;98.70
76172;DHT22;64929;51.178;4.138;2024-03-06T12:30:57;14.20;96.90
76172;DHT22;64929;51.178;4.138;2024-03-06T12:33:26;14.20;97.50
76172;DHT22;64929;51.178;4.138;2024-03-06T12:38:28;14.20;97.20
76172;DHT22;64929;51.178;4.138;2024-03-06T12:40:54;14.50;97.10
76172;DHT22;64929;51.178;4.138;2024-03-06T12:43:19;14.70;97.30
76172;DHT22;64929;51.178;4.138;2024-03-06T12:45:45;15.20;95.40
76172;DHT22;64929;51.178;4.138;2024-03-06T12:48:11;15.30;95.10
76172;DHT22;64929;51.178;4.138;2024-03-06T12:50:38;14.70;96.70
76172;DHT22;64929;51.178;4.138;2024-03-06T12:53:03;14.80;97.10
76172;DHT22;64929;51.178;4.138;2024-03-06T12:55:30;15.20;96.80
76172;DHT22;64929;51.178;4.138;2024-03-06T12:57:57;15.30;95.70
76172;DHT22;64929;51.178;4.138;2024-03-06T13:00:23;15.30;95.90
76172;DHT22;64929;51.178;4.138;2024-03-06T13:02:49;15.00;96.10
76172;DHT22;64929;51.178;4.138;2024-03-06T13:05:16;15.10;95.90
76172;DHT22;64929;51.178;4.138;2024-03-06T13:07:42;15.30;94.60
76172;DHT22;64929;51.178;4.138;2024-03-06T13:10:08;15.10;95.30
76172;DHT22;64929;51.178;4.138;2024-03-06T13:12:36;15.10;95.90
76172;DHT22;64929;51.178;4.138;2024-03-06T13:15:02;15.10;95.50
76172;DHT22;64929;51.178;4.138;2024-03-06T13:17:28;15.20;95.30
76172;DHT22;64929;51.178;4.138;2024-03-06T13:19:55;15.20;95.30
76172;DHT22;64929;51.178;4.138;2024-03-06T13:22:21;15.30;95.70
76172;DHT22;64929;51.178;4.138;2024-03-06T13:24:48;15.20;96.20
76172;DHT22;64929;51.178;4.138;2024-03-06T13:27:13;15.00;97.30
76172;DHT22;64929;51.178;4.138;2024-03-06T13:29:39;15.10;95.90
76172;DHT22;64929;51.178;4.138;2024-03-06T13:32:06;15.00;95.90
76172;DHT22;64929;51.178;4.138;2024-03-06T13:34:31;15.20;95.50
76172;DHT22;64929;51.178;4.138;2024-03-06T13:36:58;15.30;94.90
76172;DHT22;64929;51.178;4.138;2024-03-06T13:39:24;15.60;84.80
76172;DHT22;64929;51.178;4.138;2024-03-06T13:41:50;15.20;91.60
76172;DHT22;64929;51.178;4.138;2024-03-06T13:44:15;15.00;94.90
76172;DHT22;64929;51.178;4.138;2024-03-06T13:46:41;14.80;95.00
76172;DHT22;64929;51.178;4.138;2024-03-06T13:49:07;14.70;95.30
76172;DHT22;64929;51.178;4.138;2024-03-06T13:51:33;14.60;96.00
76172;DHT22;64929;51.178;4.138;2024-03-06T13:53:59;14.50;96.20
76172;DHT22;64929;51.178;4.138;2024-03-06T13:56:24;14.50;95.90
76172;DHT22;64929;51.178;4.138;2024-03-06T13:58:50;14.20;96.30
76172;DHT22;64929;51.178;4.138;2024-03-06T14:01:16;14.20;97.80
76172;DHT22;64929;51.178;4.138;2024-03-06T14:03:41;14.50;97.10
76172;DHT22;64929;51.178;4.138;2024-03-06T14:06:07;14.30;97.60
76172;DHT22;64929;51.178;4.138;2024-03-06T14:08:34;14.20;96.90
76172;DHT22;64929;51.178;4.138;2024-03-06T14:11:01;14.00;96.70
76172;DHT22;64929;51.178;4.138;2024-03-06T14:13:29;13.80;97.20
76172;DHT22;64929;51.178;4.138;2024-03-06T14:15:54;13.70;97.30
76172;DHT22;64929;51.178;4.138;2024-03-06T14:18:21;13.70;97.70
76172;DHT22;64929;51.178;4.138;2024-03-06T14:20:47;13.80;97.90
76172;DHT22;64929;51.178;4.138;2024-03-06T14:23:12;13.90;97.10
76172;DHT22;64929;51.178;4.138;2024-03-06T14:25:38;14.10;96.90
76172;DHT22;64929;51.178;4.138;2024-03-06T14:28:04;14.10;97.40
76172;DHT22;64929;51.178;4.138;2024-03-06T14:30:29;14.10;96.60
76172;DHT22;64929;51.178;4.138;2024-03-06T14:32:55;14.10;96.60
76172;DHT22;64929;51.178;4.138;2024-03-06T14:35:20;14.20;96.90
76172;DHT22;64929;51.178;4.138;2024-03-06T14:37:46;14.20;95.70
76172;DHT22;64929;51.178;4.138;2024-03-06T14:40:14;14.10;96.00
76172;DHT22;64929;51.178;4.138;2024-03-06T14:42:39;14.00;96.30
76172;DHT22;64929;51.178;4.138;2024-03-06T14:45:05;13.90;96.00
76172;DHT22;64929;51.178;4.138;2024-03-06T14:47:31;13.70;96.50
76172;DHT22;64929;51.178;4.138;2024-03-06T14:49:57;13.80;97.30
76172;DHT22;64929;51.178;4.138;2024-03-06T14:52:23;13.80;96.90
76172;DHT22;64929;51.178;4.138;2024-03-06T14:54:48;13.90;97.00
76172;DHT22;64929;51.178;4.138;2024-03-06T14:57:14;14.10;96.80
76172;DHT22;64929;51.178;4.138;2024-03-06T14:59:40;14.10;97.20
76172;DHT22;64929;51.178;4.138;2024-03-06T15:02:06;14.40;96.10
76172;DHT22;64929;51.178;4.138;2024-03-06T15:04:31;14.70;96.10
76172;DHT22;64929;51.178;4.138;2024-03-06T15:06:57;16.20;94.20
76172;DHT22;64929;51.178;4.138;2024-03-06T15:09:24;17.70;86.20
76172;DHT22;64929;51.178;4.138;2024-03-06T15:11:51;18.50;74.50
76172;DHT22;64929;51.178;4.138;2024-03-06T15:14:20;18.30;73.30
76172;DHT22;64929;51.178;4.138;2024-03-06T15:16:46;18.00;72.50
76172;DHT22;64929;51.178;4.138;2024-03-06T15:19:11;17.30;77.80
76172;DHT22;64929;51.178;4.138;2024-03-06T15:21:37;17.20;81.00
76172;DHT22;64929;51.178;4.138;2024-03-06T15:24:02;18.40;75.10
76172;DHT22;64929;51.178;4.138;2024-03-06T15:26:28;20.00;63.70
76172;DHT22;64929;51.178;4.138;2024-03-06T15:28:54;20.80;60.00
76172;DHT22;64929;51.178;4.138;2024-03-06T15:31:19;20.00;61.20
76172;DHT22;64929;51.178;4.138;2024-03-06T15:33:45;20.10;61.60
76172;DHT22;64929;51.178;4.138;2024-03-06T15:36:15;20.70;57.90
76172;DHT22;64929;51.178;4.138;2024-03-06T15:38:44;20.60;56.50
76172;DHT22;64929;51.178;4.138;2024-03-06T15:41:09;20.40;57.60